Time;durP1;ratioP1;P1;durP2;ratioP2;P2;SDS_P1;SDS_P2;PMS_P1;PMS_P2;Temp;Humidity;BMP_temperature;BMP_pressure;BME280_temperature;BME280_humidity;BME280_pressure;Samples;Min_cycle;Max_cycle;Signal;HPM_P1;HPM_P2
2022/09/20 00:01:01;;;;;;;6.47;2.20;;;12.20;99.90;;;;;;5033281;28;20075;-46
2022/09/20 00:03:26;;;;;;;4.05;1.73;;;12.20;99.90;;;;;;5032552;28;20481;-45
2022/09/20 00:05:52;;;;;;;9.65;1.75;;;12.20;99.90;;;;;;5032785;28;20025;-49
2022/09/20 00:08:17;;;;;;;12.00;2.63;;;12.20;99.90;;;;;;5032593;28;20030;-45
2022/09/20 00:10:43;;;;;;;7.10;1.60;;;12.20;99.90;;;;;;5032586;28;20038;-42
2022/09/20 00:13:11;;;;;;;10.52;1.88;;;12.20;99.90;;;;;;5032209;28;20033;-48
2022/09/20 00:15:44;;;;;;;8.55;1.75;;;12.20;99.90;;;;;;5032402;28;20095;-44
2022/09/20 00:18:10;;;;;;;2.97;1.60;;;12.10;99.90;;;;;;5032564;28;20022;-45
2022/09/20 00:20:43;;;;;;;9.20;2.13;;;12.20;99.90;;;;;;5032501;28;20029;-46
2022/09/20 00:23:08;;;;;;;7.97;1.95;;;12.10;99.90;;;;;;5032151;28;20061;-46
2022/09/20 00:25:34;;;;;;;3.15;2.03;;;12.00;99.90;;;;;;5032155;28;20073;-47
2022/09/20 00:28:00;;;;;;;12.90;3.08;;;12.00;99.90;;;;;;5032469;28;20026;-46
2022/09/20 00:30:25;;;;;;;8.85;1.73;;;12.00;99.90;;;;;;5032314;28;20125;-47
2022/09/20 00:32:51;;;;;;;6.50;1.95;;;11.90;99.90;;;;;;5032027;28;20037;-49
2022/09/20 00:35:16;;;;;;;6.07;1.90;;;11.90;99.90;;;;;;5031958;28;20045;-46
2022/09/20 00:37:42;;;;;;;8.27;2.15;;;11.90;99.90;;;;;;5032257;28;20075;-49
2022/09/20 00:40:12;;;;;;;8.43;2.17;;;11.90;99.90;;;;;;5031876;28;20459;-49
2022/09/20 00:42:39;;;;;;;4.03;1.98;;;11.90;99.90;;;;;;5031677;28;20040;-49
2022/09/20 00:45:06;;;;;;;6.78;2.05;;;11.90;99.90;;;;;;5031903;28;20075;-45
2022/09/20 00:47:34;;;;;;;10.18;2.58;;;11.90;99.90;;;;;;5031962;28;20017;-46
2022/09/20 00:50:32;;;;;;;7.80;2.75;;;11.90;99.90;;;;;;5031490;28;20033;-44
2022/09/20 00:53:00;;;;;;;5.32;2.00;;;11.90;99.90;;;;;;5031626;28;20366;-48
2022/09/20 00:55:27;;;;;;;8.48;2.15;;;11.90;99.90;;;;;;5031731;28;20025;-44
2022/09/20 00:57:53;;;;;;;4.70;2.17;;;11.80;99.90;;;;;;5031777;28;20504;-48
2022/09/20 01:00:20;;;;;;;9.38;2.05;;;11.80;99.90;;;;;;5031529;28;20112;-47
2022/09/20 01:02:50;;;;;;;5.10;2.22;;;11.70;99.90;;;;;;5031409;28;20400;-47
2022/09/20 01:05:18;;;;;;;6.18;2.30;;;11.70;99.90;;;;;;5031688;28;20685;-47
2022/09/20 01:07:46;;;;;;;5.53;2.03;;;11.60;99.90;;;;;;5031608;28;20053;-46
2022/09/20 01:10:11;;;;;;;7.22;2.45;;;11.50;99.90;;;;;;5031249;28;20033;-50
2022/09/20 01:12:39;;;;;;;4.35;1.95;;;11.50;99.90;;;;;;5031298;28;20396;-44
2022/09/20 01:15:06;;;;;;;7.13;2.22;;;11.40;99.90;;;;;;5031393;28;20021;-46
2022/09/20 01:17:35;;;;;;;4.75;2.13;;;11.40;99.90;;;;;;5031545;28;20026;-44
2022/09/20 01:20:14;;;;;;;13.95;2.60;;;11.40;99.90;;;;;;5031370;28;20523;-47
2022/09/20 01:23:06;;;;;;;7.35;2.78;;;11.40;99.90;;;;;;5031286;28;20069;-51
2022/09/20 01:25:53;;;;;;;7.57;2.70;;;11.40;99.90;;;;;;5031344;28;20087;-46
2022/09/20 01:28:19;;;;;;;5.15;2.83;;;11.30;99.90;;;;;;5031313;28;20018;-45
2022/09/20 01:30:56;;;;;;;9.18;2.40;;;11.30;99.90;;;;;;5031507;28;20087;-47
2022/09/20 01:33:50;;;;;;;9.38;2.80;;;11.20;99.90;;;;;;5031184;28;20031;-43
2022/09/20 01:36:44;;;;;;;7.55;2.92;;;11.10;99.90;;;;;;5031457;28;20120;-45
2022/09/20 01:39:35;;;;;;;8.73;2.60;;;11.00;99.90;;;;;;5029117;28;20037;-49
2022/09/20 01:42:07;;;;;;;8.02;3.13;;;11.00;99.90;;;;;;5030893;28;20492;-50
2022/09/20 01:44:53;;;;;;;9.32;2.83;;;11.00;99.90;;;;;;5031165;28;20029;-51
2022/09/20 01:47:44;;;;;;;8.70;2.65;;;10.90;99.90;;;;;;5031404;28;20026;-48
2022/09/20 01:50:55;;;;;;;15.60;3.03;;;10.90;99.90;;;;;;5031136;28;20392;-50
2022/09/20 01:53:51;;;;;;;7.13;2.60;;;10.90;99.90;;;;;;5030929;28;20083;-48
2022/09/20 01:56:38;;;;;;;8.95;3.28;;;11.00;99.90;;;;;;5031253;28;20026;-46
2022/09/20 01:59:34;;;;;;;9.10;3.55;;;11.00;99.90;;;;;;5031074;28;20033;-47
2022/09/20 02:02:18;;;;;;;4.82;1.90;;;10.90;99.90;;;;;;5032559;28;20096;-49
2022/09/20 02:04:56;;;;;;;6.20;2.70;;;10.90;99.90;;;;;;5035037;28;20409;-45
2022/09/20 02:07:51;;;;;;;6.13;2.40;;;10.90;99.90;;;;;;5034988;28;20101;-51
2022/09/20 02:10:37;;;;;;;5.72;2.35;;;10.90;99.90;;;;;;5034668;28;20439;-50
2022/09/20 02:13:29;;;;;;;8.75;2.95;;;10.80;99.90;;;;;;5034387;28;20025;-52
2022/09/20 02:16:10;;;;;;;4.22;2.67;;;10.70;99.90;;;;;;5034879;28;20030;-45
2022/09/20 02:19:17;;;;;;;8.20;2.97;;;10.70;99.90;;;;;;5034909;28;20432;-45
2022/09/20 02:22:12;;;;;;;17.70;4.63;;;10.60;99.90;;;;;;5033393;28;20041;-44
2022/09/20 02:24:52;;;;;;;8.23;3.08;;;10.60;99.90;;;;;;5034558;28;20456;-48
2022/09/20 02:27:28;;;;;;;7.25;3.92;;;10.60;99.90;;;;;;5034545;28;20508;-49
2022/09/20 02:30:03;;;;;;;9.77;3.67;;;10.60;99.90;;;;;;5034671;28;20041;-45
2022/09/20 02:32:52;;;;;;;11.98;4.05;;;10.70;99.90;;;;;;5034311;28;20021;-46
2022/09/20 02:35:42;;;;;;;8.75;3.33;;;10.70;99.90;;;;;;5034171;28;20029;-49
2022/09/20 02:38:45;;;;;;;7.65;3.80;;;10.70;99.90;;;;;;5034294;28;20523;-48
2022/09/20 02:41:46;;;;;;;8.15;3.60;;;10.70;99.90;;;;;;5034369;28;20034;-46
2022/09/20 02:44:46;;;;;;;7.25;3.78;;;10.70;99.90;;;;;;5033333;28;20176;-50
2022/09/20 02:47:26;;;;;;;13.60;4.43;;;10.60;99.90;;;;;;5034232;28;20021;-44
2022/09/20 02:50:00;;;;;;;7.80;3.13;;;10.50;99.90;;;;;;5034279;28;20030;-45
2022/09/20 02:52:50;;;;;;;9.85;3.70;;;10.50;99.90;;;;;;5033755;28;20510;-47
2022/09/20 02:55:33;;;;;;;15.40;3.78;;;10.40;99.90;;;;;;5034068;28;20120;-46
2022/09/20 02:58:18;;;;;;;10.18;3.85;;;10.40;99.90;;;;;;5032835;28;20025;-46
2022/09/20 03:00:52;;;;;;;10.18;3.05;;;10.30;99.90;;;;;;5034262;28;20029;-46
2022/09/20 03:03:59;;;;;;;10.00;2.97;;;10.30;99.90;;;;;;5033853;28;20028;-45
2022/09/20 03:06:32;;;;;;;;;;;10.20;99.90;;;;;;5013765;28;20064;-45
2022/09/20 03:09:16;;;;;;;13.55;3.42;;;10.20;99.90;;;;;;5033506;28;19959;-49
2022/09/20 03:11:50;;;;;;;7.82;3.00;;;10.20;99.90;;;;;;5033799;28;20377;-50
2022/09/20 03:14:24;;;;;;;10.32;3.17;;;10.20;99.90;;;;;;5033508;28;20432;-49
2022/09/20 03:17:15;;;;;;;8.27;2.58;;;10.30;99.90;;;;;;5033815;28;20087;-44
2022/09/20 03:20:00;;;;;;;8.25;3.28;;;10.30;99.90;;;;;;5033563;28;20117;-44
2022/09/20 03:22:56;;;;;;;7.47;4.07;;;10.40;99.90;;;;;;5033339;28;20022;-46
2022/09/20 03:25:56;;;;;;;7.28;3.47;;;10.40;99.90;;;;;;5033322;28;20025;-46
2022/09/20 03:28:25;;;;;;;9.40;3.90;;;10.40;99.90;;;;;;5029977;28;20550;-46
2022/09/20 03:30:54;;;;;;;10.90;3.78;;;10.40;99.90;;;;;;5033428;28;20044;-44
2022/09/20 03:33:36;;;;;;;11.70;4.20;;;10.40;99.90;;;;;;5033223;28;20566;-48
2022/09/20 03:36:10;;;;;;;9.90;3.63;;;10.40;99.90;;;;;;5033317;28;20571;-46
2022/09/20 03:38:54;;;;;;;7.75;4.00;;;10.30;99.90;;;;;;5033364;28;20108;-47
2022/09/20 03:41:26;;;;;;;9.80;3.10;;;10.30;99.90;;;;;;5033310;28;20034;-48
2022/09/20 03:43:55;;;;;;;13.88;3.00;;;10.20;99.90;;;;;;5032809;28;20025;-47
2022/09/20 03:46:30;;;;;;;11.65;4.18;;;10.20;99.90;;;;;;5033089;28;20108;-45
2022/09/20 03:49:34;;;;;;;7.10;3.38;;;10.10;99.90;;;;;;5033065;28;20053;-48
2022/09/20 03:52:18;;;;;;;11.65;3.88;;;10.00;99.90;;;;;;5032565;28;20025;-47
2022/09/20 03:55:05;;;;;;;9.70;5.32;;;9.90;99.90;;;;;;5032797;28;20029;-49
2022/09/20 03:57:59;;;;;;;10.93;4.03;;;9.90;99.90;;;;;;5033110;28;20029;-45
2022/09/20 04:01:01;;;;;;;8.30;3.60;;;9.80;99.90;;;;;;4978850;28;20054;-47
2022/09/20 04:03:43;;;;;;;9.82;4.57;;;9.80;99.90;;;;;;5032587;28;20021;-45
2022/09/20 04:06:21;;;;;;;9.45;4.45;;;9.70;99.90;;;;;;5033129;28;20164;-46
2022/09/20 04:09:24;;;;;;;11.68;4.85;;;9.70;99.90;;;;;;5032169;28;20017;-44
2022/09/20 04:12:25;;;;;;;15.25;4.75;;;9.70;99.90;;;;;;5032415;28;20477;-42
2022/09/20 04:14:59;;;;;;;15.05;4.85;;;9.60;99.90;;;;;;5032482;28;20052;-45
2022/09/20 04:17:53;;;;;;;13.10;5.13;;;9.70;99.90;;;;;;5031247;28;20087;-45
2022/09/20 04:20:22;;;;;;;12.60;5.88;;;9.60;99.90;;;;;;5032390;28;20021;-46
2022/09/20 04:22:52;;;;;;;14.80;5.72;;;9.60;99.90;;;;;;5032091;28;20036;-45
2022/09/20 04:25:22;;;;;;;10.68;5.35;;;9.60;99.90;;;;;;5031930;28;20381;-47
2022/09/20 04:27:55;;;;;;;16.98;6.20;;;9.60;99.90;;;;;;5032279;28;20032;-47
2022/09/20 04:30:29;;;;;;;18.88;6.30;;;9.70;99.90;;;;;;5032028;28;20123;-45
2022/09/20 04:33:16;;;;;;;14.73;6.32;;;9.70;99.90;;;;;;5031923;28;20030;-46
2022/09/20 04:38:35;;;;;;;16.75;6.03;;;9.70;99.90;;;;;;5032053;28;20052;-47
2022/09/20 04:41:22;;;;;;;7.85;4.68;;;9.70;99.90;;;;;;5032171;28;20052;-45
2022/09/20 04:44:12;;;;;;;8.23;4.50;;;9.70;99.90;;;;;;5032063;28;20022;-45
2022/09/20 04:47:15;;;;;;;9.90;5.28;;;9.70;99.90;;;;;;5032048;28;20025;-43
2022/09/20 04:49:59;;;;;;;11.73;5.47;;;9.70;99.90;;;;;;5031988;28;20029;-45
2022/09/20 04:52:27;;;;;;;10.95;5.60;;;9.70;99.90;;;;;;5031873;28;20424;-47
2022/09/20 04:55:17;;;;;;;8.65;4.47;;;9.70;99.90;;;;;;5031703;28;20056;-45
2022/09/20 04:58:10;;;;;;;9.93;4.00;;;9.70;99.90;;;;;;5030482;28;20125;-50
2022/09/20 05:00:56;;;;;;;17.50;4.82;;;9.70;99.90;;;;;;5031768;28;20103;-47
2022/09/20 05:03:40;;;;;;;10.52;3.85;;;9.80;99.90;;;;;;5031456;28;20029;-48
2022/09/20 05:06:35;;;;;;;12.52;4.47;;;9.80;99.90;;;;;;5031726;28;20542;-46
2022/09/20 05:09:17;;;;;;;12.82;3.65;;;9.80;99.90;;;;;;5031253;28;20026;-50
2022/09/20 05:12:01;;;;;;;13.15;4.13;;;9.80;99.90;;;;;;5031808;28;20083;-45
2022/09/20 05:14:46;;;;;;;8.02;4.28;;;9.80;99.90;;;;;;5031585;28;20026;-45
2022/09/20 05:17:33;;;;;;;8.10;4.03;;;9.80;99.90;;;;;;5031654;28;20105;-50
2022/09/20 05:20:35;;;;;;;8.10;3.58;;;9.80;99.90;;;;;;5031541;28;20033;-44
2022/09/20 05:23:10;;;;;;;11.48;4.22;;;9.80;99.90;;;;;;5031208;28;20032;-46
2022/09/20 05:25:39;;;;;;;10.43;3.70;;;9.80;99.90;;;;;;5031367;28;20032;-50
2022/09/20 05:28:18;;;;;;;13.30;3.80;;;9.90;99.90;;;;;;5031465;28;20472;-51
2022/09/20 05:30:48;;;;;;;10.27;4.00;;;10.00;99.90;;;;;;5031542;28;20116;-45
2022/09/20 05:33:43;;;;;;;8.48;3.90;;;10.00;99.90;;;;;;5031147;28;20532;-45
2022/09/20 05:36:35;;;;;;;12.73;4.03;;;10.00;99.90;;;;;;5040651;22;20053;-49
2022/09/20 05:39:12;;;;;;;5.47;3.70;;;10.00;99.90;;;;;;4975418;28;20026;-48
2022/09/20 05:41:51;;;;;;;13.77;4.60;;;10.00;99.90;;;;;;5016519;28;20441;-49
2022/09/20 05:44:45;;;;;;;8.85;3.50;;;10.00;99.90;;;;;;5014916;28;20109;-48
2022/09/20 05:47:28;;;;;;;11.90;4.32;;;10.00;99.90;;;;;;5013590;28;20472;-47
2022/09/20 05:50:11;;;;;;;10.05;3.88;;;10.10;99.90;;;;;;5015428;28;20029;-45
2022/09/20 05:53:09;;;;;;;21.20;4.78;;;10.10;99.90;;;;;;5005595;28;20031;-46
2022/09/20 05:56:01;;;;;;;12.70;4.57;;;10.30;99.90;;;;;;4994794;28;20027;-52
2022/09/20 05:58:43;;;;;;;11.57;4.63;;;10.30;99.90;;;;;;4996786;28;20398;-52
2022/09/20 06:01:25;;;;;;;13.60;4.22;;;10.30;99.90;;;;;;5005690;28;20113;-50
2022/09/20 06:04:09;;;;;;;7.28;4.15;;;10.30;99.90;;;;;;5014487;28;20490;-51
2022/09/20 06:07:18;;;;;;;10.65;5.10;;;10.30;99.90;;;;;;5014075;28;20029;-47
2022/09/20 06:09:50;;;;;;;8.25;3.95;;;10.40;99.90;;;;;;4974760;28;20528;-45
2022/09/20 06:12:40;;;;;;;13.77;4.50;;;10.30;99.90;;;;;;5004108;28;20509;-48
2022/09/20 06:15:14;;;;;;;11.70;4.32;;;10.30;99.90;;;;;;5015453;28;20103;-48
2022/09/20 06:17:42;;;;;;;12.73;4.53;;;10.40;99.90;;;;;;5015119;28;20501;-48
2022/09/20 06:20:26;;;;;;;10.63;4.45;;;10.30;99.90;;;;;;5014761;28;20036;-50
2022/09/20 06:22:57;;;;;;;15.43;4.88;;;10.30;99.90;;;;;;5015243;28;20026;-49
2022/09/20 06:25:42;;;;;;;7.53;4.05;;;10.40;99.90;;;;;;5014960;28;20495;-49
2022/09/20 06:28:22;;;;;;;16.98;5.07;;;10.40;99.90;;;;;;5015202;28;20037;-50
2022/09/20 06:30:49;;;;;;;13.25;5.05;;;10.30;99.90;;;;;;5014739;28;20161;-49
2022/09/20 06:33:17;;;;;;;14.43;3.97;;;10.30;99.90;;;;;;5014432;28;20030;-50
2022/09/20 06:35:46;;;;;;;8.30;3.70;;;10.20;99.90;;;;;;5014294;28;20052;-48
2022/09/20 06:41:27;;;;;;;9.60;4.60;;;10.20;99.90;;;;;;5014596;28;20029;-49
2022/09/20 06:43:56;;;;;;;19.67;5.90;;;10.30;99.90;;;;;;5014499;28;20371;-52
2022/09/20 06:46:22;;;;;;;11.25;3.70;;;10.50;99.90;;;;;;5014417;28;20112;-48
2022/09/20 06:48:50;;;;;;;14.77;4.60;;;10.70;99.90;;;;;;5012268;28;20062;-49
2022/09/20 06:51:15;;;;;;;17.00;4.32;;;10.90;99.90;;;;;;5014405;28;20018;-49
2022/09/20 06:53:41;;;;;;;14.15;4.30;;;11.00;99.90;;;;;;5014082;28;20033;-48
2022/09/20 06:56:11;;;;;;;9.10;4.35;;;11.10;99.90;;;;;;5014153;28;20022;-49
2022/09/20 06:58:37;;;;;;;9.77;3.88;;;11.20;99.90;;;;;;5014272;28;20025;-49
2022/09/20 07:01:02;;;;;;;8.88;3.58;;;11.60;99.90;;;;;;5014194;28;20394;-49
2022/09/20 07:03:31;;;;;;;8.57;3.10;;;12.40;99.90;;;;;;5013847;28;20033;-49
2022/09/20 07:05:59;;;;;;;8.38;3.17;;;13.30;99.90;;;;;;5014102;28;20030;-50
2022/09/20 07:08:25;;;;;;;6.63;2.70;;;14.40;99.90;;;;;;5014415;28;20445;-47
2022/09/20 07:10:51;;;;;;;7.25;2.42;;;15.50;99.90;;;;;;5014067;28;20021;-50
2022/09/20 07:13:18;;;;;;;9.57;2.80;;;16.60;99.90;;;;;;5013777;28;20029;-48
2022/09/20 07:15:43;;;;;;;8.25;2.10;;;17.50;99.90;;;;;;5012504;28;20084;-47
2022/09/20 07:18:09;;;;;;;8.02;1.98;;;18.40;99.90;;;;;;5014000;28;20329;-46
2022/09/20 07:20:34;;;;;;;3.78;2.17;;;18.40;99.90;;;;;;5012465;28;20036;-47
2022/09/20 07:23:01;;;;;;;8.75;2.15;;;18.40;99.90;;;;;;5013094;28;20017;-50
2022/09/20 07:25:27;;;;;;;6.22;2.40;;;18.40;99.90;;;;;;5013883;28;20018;-48
2022/09/20 07:27:52;;;;;;;5.13;2.80;;;18.50;99.90;;;;;;5014194;28;20508;-50
2022/09/20 07:30:19;;;;;;;5.25;2.75;;;18.80;99.90;;;;;;5013713;28;20033;-49
2022/09/20 07:32:44;;;;;;;8.00;2.45;;;18.90;99.90;;;;;;5013262;28;20079;-49
2022/09/20 07:35:11;;;;;;;9.63;4.03;;;19.00;99.90;;;;;;5013347;28;20042;-48
2022/09/20 07:37:40;;;;;;;12.35;2.40;;;19.70;99.90;;;;;;5012460;28;20053;-49
2022/09/20 07:40:06;;;;;;;11.60;2.42;;;20.30;99.00;;;;;;5013985;28;20033;-49
2022/09/20 07:42:31;;;;;;;6.85;2.40;;;20.80;98.00;;;;;;5012586;28;20036;-49
2022/09/20 07:44:58;;;;;;;8.93;2.70;;;21.10;97.20;;;;;;5012833;28;20014;-48
2022/09/20 07:47:24;;;;;;;7.10;2.70;;;21.40;96.40;;;;;;5013333;28;20022;-48
2022/09/20 07:49:50;;;;;;;6.60;3.13;;;21.30;95.20;;;;;;5013738;28;20025;-49
2022/09/20 07:52:17;;;;;;;9.95;3.05;;;20.30;96.60;;;;;;5013342;28;20038;-48
2022/09/20 07:54:42;;;;;;;13.15;3.35;;;19.10;98.50;;;;;;5009774;28;20080;-47
2022/09/20 07:57:08;;;;;;;10.32;3.28;;;18.40;99.00;;;;;;5011799;28;20030;-49
2022/09/20 07:59:33;;;;;;;7.63;3.63;;;18.00;99.40;;;;;;5011649;28;20038;-48
2022/09/20 08:01:59;;;;;;;14.73;3.55;;;17.30;99.90;;;;;;5011334;28;20018;-47
2022/09/20 08:04:25;;;;;;;12.05;3.28;;;17.00;99.90;;;;;;5010503;28;20033;-48
2022/09/20 08:06:51;;;;;;;9.10;3.80;;;16.70;99.90;;;;;;5002290;28;20173;-46
2022/09/20 08:09:18;;;;;;;8.93;3.78;;;16.30;99.90;;;;;;5003276;28;20079;-46
2022/09/20 08:11:45;;;;;;;12.43;4.38;;;15.70;99.90;;;;;;4994752;28;20025;-46
2022/09/20 08:14:16;;;;;;;8.57;3.95;;;15.60;99.90;;;;;;5011567;28;20379;-48
2022/09/20 08:16:44;;;;;;;7.10;4.25;;;15.60;99.90;;;;;;5012811;28;20497;-46
2022/09/20 08:19:15;;;;;;;12.18;4.20;;;15.60;99.90;;;;;;5013194;28;20026;-47
2022/09/20 08:21:41;;;;;;;8.02;3.72;;;15.30;99.90;;;;;;5013231;28;20413;-48
2022/09/20 08:24:06;;;;;;;6.80;4.70;;;15.10;99.90;;;;;;5012742;28;20029;-46
2022/09/20 08:26:34;;;;;;;8.23;3.85;;;15.10;99.90;;;;;;4994458;28;20022;-45
2022/09/20 08:29:00;;;;;;;7.82;3.83;;;15.10;99.90;;;;;;4999480;28;20385;-47
2022/09/20 08:31:35;;;;;;;7.63;3.58;;;14.90;99.90;;;;;;5012981;28;20038;-48
2022/09/20 08:34:02;;;;;;;9.68;4.82;;;14.70;99.90;;;;;;5012162;28;20014;-49
2022/09/20 08:36:30;;;;;;;8.00;4.03;;;14.80;99.90;;;;;;5012359;28;20105;-49
2022/09/20 08:38:56;;;;;;;11.68;4.10;;;14.90;99.90;;;;;;5012141;28;20030;-50
2022/09/20 08:42:01;;;;;;;8.73;3.50;;;15.00;99.90;;;;;;5010852;28;20025;-51
2022/09/20 08:44:41;;;;;;;7.82;2.80;;;15.10;99.90;;;;;;5013416;28;20108;-48
2022/09/20 08:47:18;;;;;;;4.75;3.25;;;15.30;99.90;;;;;;5013232;28;20028;-49
2022/09/20 08:49:43;;;;;;;13.05;3.42;;;15.60;99.90;;;;;;5012922;28;20512;-48
2022/09/20 08:52:16;;;;;;;9.73;3.08;;;16.40;99.90;;;;;;5012491;28;20029;-46
2022/09/20 08:54:42;;;;;;;11.23;2.95;;;17.50;99.90;;;;;;5012770;28;20034;-48
2022/09/20 08:57:16;;;;;;;9.75;2.78;;;18.50;99.70;;;;;;5013001;28;20044;-47
2022/09/20 08:59:42;;;;;;;9.23;3.57;;;18.80;98.60;;;;;;5013575;28;20579;-47
2022/09/20 09:02:16;;;;;;;4.40;2.47;;;19.00;98.30;;;;;;5011785;28;20026;-48
2022/09/20 09:04:43;;;;;;;10.98;3.35;;;19.90;96.60;;;;;;5012077;28;20045;-45
2022/09/20 09:07:13;;;;;;;9.57;2.15;;;20.30;95.10;;;;;;5011064;28;20057;-48
2022/09/20 09:09:42;;;;;;;4.85;2.70;;;20.90;94.50;;;;;;5010324;28;20022;-44
2022/09/20 09:12:18;;;;;;;7.78;2.20;;;21.20;93.10;;;;;;5011124;28;20516;-49
2022/09/20 09:14:56;;;;;;;4.60;2.17;;;20.50;94.10;;;;;;5011512;28;20037;-49
2022/09/20 09:17:24;;;;;;;8.88;4.10;;;21.10;93.50;;;;;;5008850;28;20040;-48
2022/09/20 09:19:59;;;;;;;4.70;1.70;;;21.50;92.20;;;;;;5009914;28;20121;-46
2022/09/20 09:22:39;;;;;;;8.32;2.08;;;22.40;91.20;;;;;;5011587;28;20052;-45
2022/09/20 09:25:14;;;;;;;6.00;2.63;;;22.50;91.10;;;;;;5011555;28;20146;-47
2022/09/20 09:28:08;;;;;;;5.65;2.95;;;22.50;90.70;;;;;;5011313;28;20088;-47
2022/09/20 09:30:37;;;;;;;6.55;2.40;;;21.50;92.00;;;;;;4983558;28;20486;-50
2022/09/20 09:33:25;;;;;;;9.18;2.55;;;20.60;92.70;;;;;;4997003;28;20120;-47
2022/09/20 09:35:57;;;;;;;7.95;3.25;;;19.80;93.30;;;;;;5010924;28;20113;-51
2022/09/20 09:38:26;;;;;;;3.88;2.10;;;19.30;94.80;;;;;;5011780;28;20026;-48
2022/09/20 09:40:58;;;;;;;3.42;2.10;;;19.20;94.70;;;;;;5011610;28;20041;-47
2022/09/20 09:43:30;;;;;;;5.93;2.28;;;18.80;95.70;;;;;;5011424;28;20112;-46
2022/09/20 09:46:20;;;;;;;6.60;2.30;;;18.80;96.00;;;;;;5009673;28;20022;-46
2022/09/20 09:48:48;;;;;;;9.05;2.53;;;18.60;95.30;;;;;;5001498;28;20499;-48
2022/09/20 09:51:21;;;;;;;11.65;4.28;;;18.20;96.10;;;;;;5011024;28;20034;-48
2022/09/20 09:53:50;;;;;;;6.65;2.70;;;18.40;97.30;;;;;;4994350;28;20041;-48
2022/09/20 09:56:39;;;;;;;6.68;2.20;;;18.80;96.50;;;;;;5002633;28;20026;-48
2022/09/20 09:59:23;;;;;;;3.83;2.20;;;18.70;95.40;;;;;;4991793;28;20042;-46
2022/09/20 10:01:57;;;;;;;7.90;3.15;;;18.80;95.70;;;;;;5004805;28;20102;-50
2022/09/20 10:04:50;;;;;;;7.28;2.50;;;19.30;94.80;;;;;;5002622;28;20025;-47
2022/09/20 10:07:39;;;;;;;10.32;2.53;;;19.50;94.90;;;;;;5010330;28;20401;-48
2022/09/20 10:10:33;;;;;;;11.13;3.03;;;19.10;95.00;;;;;;5003139;28;20536;-47
2022/09/20 10:13:20;;;;;;;8.40;2.85;;;18.50;94.90;;;;;;5008318;28;20089;-46
2022/09/20 10:16:21;;;;;;;6.10;2.40;;;18.00;96.30;;;;;;5010961;28;20026;-47
2022/09/20 10:18:47;;;;;;;4.18;1.70;;;17.70;97.30;;;;;;4998255;28;20037;-51
2022/09/20 10:21:40;;;;;;;3.17;1.67;;;17.20;98.00;;;;;;5012034;28;20389;-52
2022/09/20 10:24:29;;;;;;;6.40;1.85;;;16.80;99.00;;;;;;5014677;28;20018;-51
2022/09/20 10:27:00;;;;;;;5.47;2.13;;;16.40;99.90;;;;;;5015210;28;20033;-50
2022/09/20 10:29:49;;;;;;;6.80;1.77;;;16.10;99.90;;;;;;5017570;28;20548;-48
2022/09/20 10:32:36;;;;;;;4.53;2.13;;;15.80;99.90;;;;;;5018482;28;20025;-48
2022/09/20 10:35:26;;;;;;;8.45;2.13;;;15.60;99.90;;;;;;5017635;28;20480;-49
2022/09/20 10:38:04;;;;;;;5.30;2.13;;;15.70;99.90;;;;;;5019312;28;20547;-48
2022/09/20 10:43:36;;;;;;;8.60;2.55;;;15.60;99.90;;;;;;5018690;28;20088;-48
2022/09/20 10:46:36;;;;;;;7.15;2.42;;;15.80;99.90;;;;;;5017679;28;20030;-49
2022/09/20 10:49:22;;;;;;;5.57;2.33;;;16.30;99.90;;;;;;5018510;28;20034;-46
2022/09/20 10:52:10;;;;;;;7.47;2.60;;;16.60;99.90;;;;;;5018078;28;20026;-46
2022/09/20 10:54:37;;;;;;;4.80;1.90;;;16.80;99.90;;;;;;5018162;28;20477;-45
2022/09/20 10:57:47;;;;;;;5.25;2.13;;;16.90;99.90;;;;;;5018628;28;20030;-48
2022/09/20 11:00:24;;;;;;;3.35;1.60;;;17.10;99.80;;;;;;5007972;28;20413;-49
2022/09/20 11:03:18;;;;;;;5.72;2.13;;;17.20;98.60;;;;;;5017938;28;20026;-48
2022/09/20 11:06:05;;;;;;;5.03;2.35;;;17.10;99.10;;;;;;5018882;28;20056;-49
2022/09/20 11:08:37;;;;;;;10.45;2.38;;;17.00;99.10;;;;;;5019545;28;20301;-47
2022/09/20 11:11:08;;;;;;;4.63;1.67;;;16.70;99.70;;;;;;5018086;28;20397;-45
2022/09/20 11:14:01;;;;;;;4.20;2.28;;;16.70;98.30;;;;;;5018831;28;20033;-47
2022/09/20 11:16:36;;;;;;;3.45;1.48;;;16.20;99.40;;;;;;5020426;28;20026;-46
2022/09/20 11:19:17;;;;;;;2.10;1.47;;;15.80;99.90;;;;;;5019537;28;20105;-48
2022/09/20 11:22:15;;;;;;;4.13;2.00;;;15.50;99.90;;;;;;5018084;28;20029;-47
2022/09/20 11:24:47;;;;;;;2.70;2.00;;;15.40;99.90;;;;;;5015455;28;20034;-44
2022/09/20 11:27:28;;;;;;;6.68;2.00;;;15.30;99.90;;;;;;5018996;28;20025;-46
2022/09/20 11:30:07;;;;;;;2.47;1.95;;;15.00;99.90;;;;;;5018876;28;20244;-45
2022/09/20 11:32:42;;;;;;;6.18;2.35;;;14.80;99.90;;;;;;5017221;28;20160;-48
2022/09/20 11:35:42;;;;;;;6.97;2.35;;;14.90;99.90;;;;;;5018930;28;20041;-51
2022/09/20 11:38:48;;;;;;;3.88;1.90;;;14.80;99.90;;;;;;5006293;28;20084;-47
2022/09/20 11:41:19;;;;;;;4.18;1.70;;;14.90;99.90;;;;;;5017372;28;20034;-47
2022/09/20 11:43:46;;;;;;;2.92;1.63;;;15.10;99.90;;;;;;5017837;28;20029;-47
2022/09/20 11:46:20;;;;;;;2.60;1.63;;;15.30;99.90;;;;;;5019217;28;20021;-46
2022/09/20 11:48:52;;;;;;;3.35;2.20;;;15.40;99.90;;;;;;5017144;28;20057;-47
2022/09/20 11:51:48;;;;;;;2.30;2.00;;;15.50;99.90;;;;;;5017563;28;20026;-47
2022/09/20 11:54:22;;;;;;;;;;;15.60;99.90;;;;;;5018081;28;20018;-47
2022/09/20 11:56:55;;;;;;;2.67;1.85;;;15.60;99.90;;;;;;5018107;28;19906;-46
2022/09/20 11:59:35;;;;;;;4.95;1.95;;;15.50;99.90;;;;;;5017789;28;20030;-47
2022/09/20 12:02:11;;;;;;;3.08;1.92;;;15.40;99.90;;;;;;5017726;28;20025;-47
2022/09/20 12:04:37;;;;;;;4.22;1.75;;;15.40;99.90;;;;;;5016410;28;20022;-45
2022/09/20 12:07:18;;;;;;;6.05;1.50;;;15.40;99.90;;;;;;5017761;28;20032;-46
2022/09/20 12:09:52;;;;;;;2.60;1.50;;;15.60;99.90;;;;;;5017250;28;20022;-46
2022/09/20 12:12:40;;;;;;;1.92;1.48;;;15.70;99.90;;;;;;5017233;28;20033;-48
2022/09/20 12:15:20;;;;;;;2.63;1.35;;;15.90;99.60;;;;;;5015909;28;20080;-44
2022/09/20 12:17:46;;;;;;;8.43;1.48;;;16.10;98.90;;;;;;5013341;28;20095;-50
2022/09/20 12:20:41;;;;;;;4.28;1.55;;;16.20;98.50;;;;;;5013209;28;20313;-46
2022/09/20 12:23:33;;;;;;;1.95;1.60;;;16.30;97.80;;;;;;5013773;28;20025;-51
2022/09/20 12:26:05;;;;;;;3.08;1.42;;;16.30;97.60;;;;;;4994105;28;20137;-47
2022/09/20 12:28:39;;;;;;;2.58;1.70;;;16.20;97.70;;;;;;5014381;28;20491;-49
2022/09/20 12:31:29;;;;;;;6.15;1.52;;;16.00;97.80;;;;;;5013949;28;20030;-53
2022/09/20 12:34:24;;;;;;;6.93;2.20;;;15.90;98.60;;;;;;5009237;28;20041;-48
2022/09/20 12:36:50;;;;;;;4.10;2.05;;;16.00;98.40;;;;;;5014128;28;20030;-47
2022/09/20 12:39:18;;;;;;;4.25;1.67;;;16.00;98.10;;;;;;5014025;28;20076;-46
2022/09/20 12:41:51;;;;;;;3.13;1.80;;;16.10;98.70;;;;;;5012816;28;20025;-49
2022/09/20 12:44:32;;;;;;;3.45;1.67;;;16.10;98.90;;;;;;5013857;28;20390;-48
2022/09/20 12:47:08;;;;;;;3.22;1.67;;;16.10;98.30;;;;;;5013574;28;20022;-45
2022/09/20 12:55:45;;;;;;;4.80;1.90;;;16.20;98.80;;;;;;5015660;28;20040;-50
2022/09/20 12:58:13;;;;;;;4.70;1.60;;;16.20;99.90;;;;;;5013469;28;20052;-48
2022/09/20 13:00:47;;;;;;;3.45;2.10;;;16.20;99.90;;;;;;5013612;28;20114;-50
2022/09/20 13:03:27;;;;;;;3.33;2.38;;;16.10;99.90;;;;;;5013567;28;20049;-51
2022/09/20 13:06:05;;;;;;;8.75;2.53;;;16.10;99.90;;;;;;5013778;28;20026;-52
2022/09/20 13:08:50;;;;;;;3.30;2.38;;;16.00;99.90;;;;;;5012624;28;20497;-46
2022/09/20 13:11:42;;;;;;;3.47;1.90;;;15.90;99.90;;;;;;5013277;28;20041;-49
2022/09/20 13:14:13;;;;;;;5.68;1.58;;;15.80;99.90;;;;;;5014406;28;20037;-48
2022/09/20 13:16:53;;;;;;;6.45;2.17;;;15.90;99.90;;;;;;5013993;28;20030;-48
2022/09/20 13:19:22;;;;;;;7.15;2.20;;;15.90;99.90;;;;;;5013183;28;20393;-49
2022/09/20 13:22:02;;;;;;;4.57;2.22;;;15.90;99.90;;;;;;5013900;28;20037;-50
2022/09/20 13:24:36;;;;;;;6.05;1.70;;;16.10;99.90;;;;;;5012546;28;20268;-48
2022/09/20 13:27:23;;;;;;;3.08;1.80;;;16.10;99.80;;;;;;5014169;28;20080;-49
2022/09/20 13:29:49;;;;;;;5.85;2.13;;;15.90;99.70;;;;;;5013602;28;20037;-46
2022/09/20 13:32:28;;;;;;;3.08;1.90;;;15.90;99.90;;;;;;5013002;28;20298;-47
2022/09/20 13:35:09;;;;;;;2.75;1.98;;;15.90;99.90;;;;;;5013877;28;20128;-46
2022/09/20 13:37:57;;;;;;;2.58;1.63;;;15.80;99.90;;;;;;5014468;28;20486;-49
2022/09/20 13:40:24;;;;;;;5.57;1.77;;;15.70;99.90;;;;;;5012684;28;20022;-47
2022/09/20 13:42:52;;;;;;;3.50;2.10;;;15.70;99.90;;;;;;5013430;28;20049;-47
2022/09/20 13:45:20;;;;;;;6.75;2.15;;;15.70;99.90;;;;;;5013436;28;20077;-49
2022/09/20 13:47:51;;;;;;;5.03;2.15;;;15.60;99.90;;;;;;5013800;28;20096;-49
2022/09/20 13:50:26;;;;;;;8.88;2.22;;;15.50;99.90;;;;;;5014370;28;20048;-48
2022/09/20 13:53:00;;;;;;;4.53;2.20;;;15.50;99.90;;;;;;5012184;28;20033;-48
2022/09/20 13:55:35;;;;;;;2.63;1.73;;;15.60;99.90;;;;;;5012550;28;20038;-48